Baltic Marshall — C4KD2 — position and weather

sailwx.info

Track history (hours):
 
Tides and Currents Weather Stations Pressure Air Temp Water Temp Dewpoint Dewpoint Depression Visibility Wind Speed Wind Dir Waves Ship Positions

Baltic Marshall

Last reported at 2016-May-18 00:16 UTC. Time now 2016-May-30 06:58 UTC.
Position N 55°41' E 015°37'.
Warning: this ship's position is 12 days out of date.

Length 183 m; draft 6.8 m.

Type: Ship. MMSI: 212118000.

Date/timePositionNaut miles runAvg speedWind from/ knotsBaromVisibWave heightAir tempDewpointWater temp
2016-May-18 00:16N 55°41' E 015°37'1013.5
2016-May-17 23:33N 55°37' E 015°22'1313.4
2016-May-17 22:33N 55°30' E 015°01'1413.5
2016-May-17 21:33N 55°24' E 014°41'1313.3
2016-May-17 20:33N 55°14' E 014°26'1212.4
2016-May-17 19:33N 55°10' E 014°05'1312.8
2016-May-17 18:33N 55°11' E 013°42'1313.3
2016-May-17 17:33N 55°13' E 013°19'1413.7
2016-May-17 16:33N 55°14' E 012°56'1211.7
2016-May-17 15:33N 55°21' E 012°38'1212.4
2016-May-17 14:33N 55°33' E 012°42'1110.9
2016-May-17 13:33N 55°44' E 012°41'1413.5
2016-May-17 12:33N 55°57' E 012°40'1312.8
2016-May-17 11:34N 56°08' E 012°28'1413.5
2016-May-17 10:33N 56°16' E 012°08'1512.7
2016-May-17 09:22N 56°30' E 011°59'1113.6
2016-May-17 08:33N 56°41' E 011°55'1313.4
2016-May-17 07:33N 56°53' E 011°46'1413.7
2016-May-17 06:33N 57°06' E 011°38'1414.5
2016-May-17 05:33N 57°20' E 011°29'1413.9
2016-May-17 04:33N 57°32' E 011°16'1413.9
2016-May-17 03:34N 57°41' E 010°57'1313.4
2016-May-17 02:34N 57°47' E 010°34'1313.4
2016-May-17 01:34N 57°47' E 010°09'1313.1
2016-May-17 00:34N 57°46' E 009°44'1313.2
2016-May-16 23:33N 57°40' E 009°22'1313.3
2016-May-16 22:33N 57°32' E 009°02'1313.1
2016-May-16 21:33N 57°26' E 008°41'1313.0
2016-May-16 20:34N 57°25' E 008°17'1010.0
2016-May-16 19:33N 57°15' E 008°12'20311.9
2016-May-16 02:31N 54°21' E 005°07'1212.5
2016-May-16 01:33N 54°11' E 004°56'1212.0
2016-May-16 00:33N 54°03' E 004°40'3611.9
2016-May-15 21:32N 53°36' E 003°59'1212.0
2016-May-15 20:31N 53°28' E 003°44'1212.0
2016-May-15 19:29N 53°17' E 003°36'1111.7
2016-May-15 18:33N 53°07' E 003°29'1211.5
2016-May-15 17:32N 52°56' E 003°22'1111.1
2016-May-15 16:31N 52°45' E 003°17'1110.9
2016-May-15 15:32N 52°34' E 003°15'1111.3
2016-May-15 14:33N 52°23' E 003°12'1212.0
2016-May-15 13:33N 52°11' E 003°09'1312.5
2016-May-15 12:32N 51°59' E 003°05'1212.4
2016-May-15 11:32N 51°47' E 003°10'1212.6
2016-May-15 10:33N 51°37' E 003°22'1313.4
2016-May-15 09:33N 51°26' E 003°35'6 5.6
2016-May-15 08:32N 51°25' E 003°44'  
2016-May-12 11:33N 51°25' E 003°44'3 2.7
2016-May-12 10:33N 51°26' E 003°40'7 7.0
2016-May-12 09:33N 51°25' E 003°29'6 6.0
2016-May-12 08:33N 51°24' E 003°20'8 7.9
2016-May-12 07:32N 51°24' E 003°07'9 9.2
2016-May-12 06:33N 51°25' E 002°52'7 7.3
2016-May-12 05:33N 51°23' E 002°41'2 2.2
2016-May-12 04:32N 51°25' E 002°39'0 0.0
2016-May-12 03:32N 51°25' E 002°39'0 0.1
2016-May-12 01:26N 51°25' E 002°39'0 0.0
2016-May-12 00:32N 51°25' E 002°38'0 0.0
2016-May-11 23:14N 51°25' E 002°38'0 0.1
2016-May-11 22:32N 51°25' E 002°38'0 0.0
2016-May-11 21:32N 51°25' E 002°38'0 0.2
2016-May-11 20:32N 51°25' E 002°39'0 0.1
2016-May-11 19:26N 51°25' E 002°39'0 0.0
2016-May-11 18:32N 51°25' E 002°39'0 0.0
2016-May-11 17:32N 51°25' E 002°39'0 0.0
2016-May-11 16:29N 51°25' E 002°39'0 0.0
2016-May-11 15:32N 51°25' E 002°39'2 1.8
2016-May-11 14:33N 51°24' E 002°37'1111.1
2016-May-11 13:32N 51°20' E 002°20'1111.2
2016-May-11 12:33N 51°22' E 002°03'1010.4
2016-May-11 11:34N 51°32' E 002°07'1514.7
2016-May-11 10:32N 51°43' E 002°23'13612.2
2016-May-10 23:22N 53°48' E 003°51'1012.2
2016-May-10 22:33N 53°54' E 004°05'1212.0
2016-May-10 21:33N 54°01' E 004°21'1212.1
2016-May-10 20:33N 54°11' E 004°34'1212.5
2016-May-10 19:33N 54°21' E 004°46'1312.9
2016-May-10 18:32N 54°32' E 004°59'1313.1
2016-May-10 17:33N 54°43' E 005°11'1313.0
2016-May-10 16:32N 54°54' E 005°24'1312.8
2016-May-10 15:33N 55°04' E 005°36'2612.2
2016-May-10 13:26N 55°26' E 006°01'1011.1
2016-May-10 12:33N 55°34' E 006°11'1312.8
2016-May-10 11:33N 55°44' E 006°24'18212.1
2016-May-09 20:34N 57°48' E 010°27'1212.2
2016-May-09 19:34N 57°46' E 010°49'1111.4
2016-May-09 18:34N 57°38' E 011°05'1312.6
2016-May-09 17:34N 57°30' E 011°22'1312.6
2016-May-09 16:33N 57°18' E 011°32'1313.0
2016-May-09 15:34N 57°06' E 011°41'1313.0
2016-May-09 14:33N 56°54' E 011°48'1211.7
2016-May-09 13:33N 56°42' E 011°51'1312.8
2016-May-09 12:33N 56°31' E 011°39'1312.6
2016-May-09 11:32N 56°20' E 011°27'1512.5
2016-May-09 10:21N 56°08' E 011°12'1012.7
2016-May-09 09:33N 55°59' E 011°03'1312.8
2016-May-09 08:33N 55°49' E 010°49'1313.4
2016-May-09 07:33N 55°35' E 010°49'1313.1
2016-May-09 06:32N 55°24' E 011°01'1212.5
2016-May-09 05:33N 55°12' E 011°05'1212.3
2016-May-09 04:33N 54°60' E 010°59'1312.6
2016-May-09 03:34N 54°48' E 010°50'1110.5
2016-May-09 02:33N 54°38' E 010°54'1313.0
2016-May-09 01:33N 54°35' E 011°16'1313.3
2016-May-09 00:33N 54°29' E 011°37'1313.0
2016-May-08 23:33N 54°26' E 011°59'1110.6
2016-May-08 22:33N 54°32' E 012°14'1111.1
2016-May-08 21:33N 54°41' E 012°26'1312.6
2016-May-08 20:33N 54°48' E 012°44'1212.4
2016-May-08 19:33N 54°52' E 013°05'1312.7
2016-May-08 18:33N 54°56' E 013°26'1312.8
2016-May-08 17:33N 55°00' E 013°47'1312.5
2016-May-08 16:33N 55°06' E 014°06'1312.6
2016-May-08 15:33N 55°15' E 014°21'1313.0
2016-May-08 14:33N 55°26' E 014°34'1312.6
2016-May-08 13:33N 55°30' E 014°55'1312.7
2016-May-08 12:33N 55°34' E 015°16'1312.5
2016-May-08 11:33N 55°38' E 015°37'1312.6
2016-May-08 10:33N 55°41' E 015°59'1312.7
2016-May-08 09:32N 55°45' E 016°21'1712.8
2016-May-08 08:13N 55°50' E 016°50'912.7
2016-May-08 07:31N 55°52' E 017°05'1212.8
2016-May-08 06:33N 55°56' E 017°26'1312.7
2016-May-08 05:33N 56°01' E 017°47'1312.8
2016-May-08 04:33N 56°08' E 018°06'1312.8
2016-May-08 03:33N 56°15' E 018°26'  
Track history (hours):
 
Tides and Currents Weather Stations Pressure Air Temp Water Temp Dewpoint Dewpoint Depression Visibility Wind Speed Wind Dir Waves Ship Positions

Baltic Marshall

Last reported at 2016-May-18 00:16 UTC. Time now 2016-May-30 06:58 UTC.
Position N 55°41' E 015°37'.
Warning: this ship's position is 12 days out of date.

Length 183 m; draft 6.8 m.

Type: Ship. MMSI: 212118000.

Date/timePositionNaut miles runAvg speedWind from/ knotsBaromVisibWave heightAir tempDewpointWater temp
2016-May-18 00:16N 55°41' E 015°37'1013.5
2016-May-17 23:33N 55°37' E 015°22'1313.4
2016-May-17 22:33N 55°30' E 015°01'1413.5
2016-May-17 21:33N 55°24' E 014°41'1313.3
2016-May-17 20:33N 55°14' E 014°26'1212.4
2016-May-17 19:33N 55°10' E 014°05'1312.8
2016-May-17 18:33N 55°11' E 013°42'1313.3
2016-May-17 17:33N 55°13' E 013°19'1413.7
2016-May-17 16:33N 55°14' E 012°56'1211.7
2016-May-17 15:33N 55°21' E 012°38'1212.4
2016-May-17 14:33N 55°33' E 012°42'1110.9
2016-May-17 13:33N 55°44' E 012°41'1413.5
2016-May-17 12:33N 55°57' E 012°40'1312.8
2016-May-17 11:34N 56°08' E 012°28'1413.5
2016-May-17 10:33N 56°16' E 012°08'1512.7
2016-May-17 09:22N 56°30' E 011°59'1113.6
2016-May-17 08:33N 56°41' E 011°55'1313.4
2016-May-17 07:33N 56°53' E 011°46'1413.7
2016-May-17 06:33N 57°06' E 011°38'1414.5
2016-May-17 05:33N 57°20' E 011°29'1413.9
2016-May-17 04:33N 57°32' E 011°16'1413.9
2016-May-17 03:34N 57°41' E 010°57'1313.4
2016-May-17 02:34N 57°47' E 010°34'1313.4
2016-May-17 01:34N 57°47' E 010°09'1313.1
2016-May-17 00:34N 57°46' E 009°44'1313.2
2016-May-16 23:33N 57°40' E 009°22'1313.3
2016-May-16 22:33N 57°32' E 009°02'1313.1
2016-May-16 21:33N 57°26' E 008°41'1313.0
2016-May-16 20:34N 57°25' E 008°17'1010.0
2016-May-16 19:33N 57°15' E 008°12'20311.9
2016-May-16 02:31N 54°21' E 005°07'1212.5
2016-May-16 01:33N 54°11' E 004°56'1212.0
2016-May-16 00:33N 54°03' E 004°40'3611.9
2016-May-15 21:32N 53°36' E 003°59'1212.0
2016-May-15 20:31N 53°28' E 003°44'1212.0
2016-May-15 19:29N 53°17' E 003°36'1111.7
2016-May-15 18:33N 53°07' E 003°29'1211.5
2016-May-15 17:32N 52°56' E 003°22'1111.1
2016-May-15 16:31N 52°45' E 003°17'1110.9
2016-May-15 15:32N 52°34' E 003°15'1111.3
2016-May-15 14:33N 52°23' E 003°12'1212.0
2016-May-15 13:33N 52°11' E 003°09'1312.5
2016-May-15 12:32N 51°59' E 003°05'1212.4
2016-May-15 11:32N 51°47' E 003°10'1212.6
2016-May-15 10:33N 51°37' E 003°22'1313.4
2016-May-15 09:33N 51°26' E 003°35'6 5.6
2016-May-15 08:32N 51°25' E 003°44'  
2016-May-12 11:33N 51°25' E 003°44'3 2.7
2016-May-12 10:33N 51°26' E 003°40'7 7.0
2016-May-12 09:33N 51°25' E 003°29'6 6.0
2016-May-12 08:33N 51°24' E 003°20'8 7.9
2016-May-12 07:32N 51°24' E 003°07'9 9.2
2016-May-12 06:33N 51°25' E 002°52'7 7.3
2016-May-12 05:33N 51°23' E 002°41'2 2.2
2016-May-12 04:32N 51°25' E 002°39'0 0.0
2016-May-12 03:32N 51°25' E 002°39'0 0.1
2016-May-12 01:26N 51°25' E 002°39'0 0.0
2016-May-12 00:32N 51°25' E 002°38'0 0.0
2016-May-11 23:14N 51°25' E 002°38'0 0.1
2016-May-11 22:32N 51°25' E 002°38'0 0.0
2016-May-11 21:32N 51°25' E 002°38'0 0.2
2016-May-11 20:32N 51°25' E 002°39'0 0.1
2016-May-11 19:26N 51°25' E 002°39'0 0.0
2016-May-11 18:32N 51°25' E 002°39'0 0.0
2016-May-11 17:32N 51°25' E 002°39'0 0.0
2016-May-11 16:29N 51°25' E 002°39'0 0.0
2016-May-11 15:32N 51°25' E 002°39'2 1.8
2016-May-11 14:33N 51°24' E 002°37'1111.1
2016-May-11 13:32N 51°20' E 002°20'1111.2
2016-May-11 12:33N 51°22' E 002°03'1010.4
2016-May-11 11:34N 51°32' E 002°07'1514.7
2016-May-11 10:32N 51°43' E 002°23'13612.2
2016-May-10 23:22N 53°48' E 003°51'1012.2
2016-May-10 22:33N 53°54' E 004°05'1212.0
2016-May-10 21:33N 54°01' E 004°21'1212.1
2016-May-10 20:33N 54°11' E 004°34'1212.5
2016-May-10 19:33N 54°21' E 004°46'1312.9
2016-May-10 18:32N 54°32' E 004°59'1313.1
2016-May-10 17:33N 54°43' E 005°11'1313.0
2016-May-10 16:32N 54°54' E 005°24'1312.8
2016-May-10 15:33N 55°04' E 005°36'2612.2
2016-May-10 13:26N 55°26' E 006°01'1011.1
2016-May-10 12:33N 55°34' E 006°11'1312.8
2016-May-10 11:33N 55°44' E 006°24'18212.1
2016-May-09 20:34N 57°48' E 010°27'1212.2
2016-May-09 19:34N 57°46' E 010°49'1111.4
2016-May-09 18:34N 57°38' E 011°05'1312.6
2016-May-09 17:34N 57°30' E 011°22'1312.6
2016-May-09 16:33N 57°18' E 011°32'1313.0
2016-May-09 15:34N 57°06' E 011°41'1313.0
2016-May-09 14:33N 56°54' E 011°48'1211.7
2016-May-09 13:33N 56°42' E 011°51'1312.8
2016-May-09 12:33N 56°31' E 011°39'1312.6
2016-May-09 11:32N 56°20' E 011°27'1512.5
2016-May-09 10:21N 56°08' E 011°12'1012.7
2016-May-09 09:33N 55°59' E 011°03'1312.8
2016-May-09 08:33N 55°49' E 010°49'1313.4
2016-May-09 07:33N 55°35' E 010°49'1313.1
2016-May-09 06:32N 55°24' E 011°01'1212.5
2016-May-09 05:33N 55°12' E 011°05'1212.3
2016-May-09 04:33N 54°60' E 010°59'1312.6
2016-May-09 03:34N 54°48' E 010°50'1110.5
2016-May-09 02:33N 54°38' E 010°54'1313.0
2016-May-09 01:33N 54°35' E 011°16'1313.3
2016-May-09 00:33N 54°29' E 011°37'1313.0
2016-May-08 23:33N 54°26' E 011°59'1110.6
2016-May-08 22:33N 54°32' E 012°14'1111.1
2016-May-08 21:33N 54°41' E 012°26'1312.6
2016-May-08 20:33N 54°48' E 012°44'1212.4
2016-May-08 19:33N 54°52' E 013°05'1312.7
2016-May-08 18:33N 54°56' E 013°26'1312.8
2016-May-08 17:33N 55°00' E 013°47'1312.5
2016-May-08 16:33N 55°06' E 014°06'1312.6
2016-May-08 15:33N 55°15' E 014°21'1313.0
2016-May-08 14:33N 55°26' E 014°34'1312.6
2016-May-08 13:33N 55°30' E 014°55'1312.7
2016-May-08 12:33N 55°34' E 015°16'1312.5
2016-May-08 11:33N 55°38' E 015°37'1312.6
2016-May-08 10:33N 55°41' E 015°59'1312.7
2016-May-08 09:32N 55°45' E 016°21'1712.8
2016-May-08 08:13N 55°50' E 016°50'912.7
2016-May-08 07:31N 55°52' E 017°05'1212.8
2016-May-08 06:33N 55°56' E 017°26'1312.7
2016-May-08 05:33N 56°01' E 017°47'1312.8
2016-May-08 04:33N 56°08' E 018°06'1312.8
2016-May-08 03:33N 56°15' E 018°26'  

Dump ship's entire track history